Time;durP1;ratioP1;P1;durP2;ratioP2;P2;SDS_P1;SDS_P2;PMS_P1;PMS_P2;Temp;Humidity;BMP_temperature;BMP_pressure;BME280_temperature;BME280_humidity;BME280_pressure;Samples;Min_cycle;Max_cycle;Signal;HPM_P1;HPM_P2
2022/11/26 00:01:40;;;;;;;4.27;1.70;;;;;;;;;;5090639;28;20012;-40
2022/11/26 00:04:06;;;;;;;5.70;1.60;;;;;;;;;;5091216;28;20059;-40
2022/11/26 00:06:34;;;;;;;5.13;1.38;;;;;;;;;;5090440;28;20422;-39
2022/11/26 00:09:01;;;;;;;7.88;1.75;;;;;;;;;;5090162;28;20028;-39
2022/11/26 00:11:27;;;;;;;6.78;2.15;;;;;;;;;;5090789;28;20047;-40
2022/11/26 00:13:53;;;;;;;4.72;1.80;;;;;;;;;;5089980;28;20628;-39
2022/11/26 00:16:19;;;;;;;6.10;2.42;;;;;;;;;;5091331;28;20054;-40
2022/11/26 00:18:45;;;;;;;5.35;1.60;;;;;;;;;;5090672;28;20024;-39
2022/11/26 00:21:19;;;;;;;3.72;1.38;;;;;;;;;;5090616;28;20024;-39
2022/11/26 00:23:45;;;;;;;3.42;1.50;;;;;;;;;;5090832;28;20028;-40
2022/11/26 00:26:16;;;;;;;3.03;1.52;;;;;;;;;;5090477;28;20134;-39
2022/11/26 00:28:48;;;;;;;2.70;1.30;;;;;;;;;;5090005;28;20028;-39
2022/11/26 00:31:15;;;;;;;3.63;1.23;;;;;;;;;;5090353;28;20518;-39
2022/11/26 00:33:41;;;;;;;3.75;1.30;;;;;;;;;;5090152;28;20047;-39
2022/11/26 00:36:23;;;;;;;1.50;1.10;;;;;;;;;;5097769;28;20027;-40
2022/11/26 00:38:52;;;;;;;3.20;1.13;;;;;;;;;;5111333;28;20493;-40
2022/11/26 00:41:20;;;;;;;3.13;1.27;;;;;;;;;;5111122;28;20070;-40
2022/11/26 00:43:46;;;;;;;3.58;1.30;;;;;;;;;;5110410;28;20028;-39
2022/11/26 00:46:13;;;;;;;2.65;0.93;;;;;;;;;;5110413;28;20794;-39
2022/11/26 00:48:39;;;;;;;3.95;1.85;;;;;;;;;;5110442;28;20085;-40
2022/11/26 00:51:05;;;;;;;3.78;1.20;;;;;;;;;;5105243;28;20031;-40
2022/11/26 00:53:31;;;;;;;2.97;1.10;;;;;;;;;;5110325;28;20024;-40
2022/11/26 00:55:57;;;;;;;4.30;1.20;;;;;;;;;;5110380;28;20032;-39
2022/11/26 00:58:24;;;;;;;2.70;1.30;;;;;;;;;;5110163;28;20022;-39
2022/11/26 01:00:51;;;;;;;4.53;1.35;;;;;;;;;;5110805;28;20027;-40
2022/11/26 06:11:49;;;;;;;4.03;1.92;;;;;;;;;;5093024;28;20549;-39
2022/11/26 06:14:15;;;;;;;3.67;1.80;;;;;;;;;;5093568;28;20032;-39
2022/11/26 06:16:41;;;;;;;2.67;1.40;;;;;;;;;;5108714;28;20387;-39
2022/11/26 06:19:07;;;;;;;2.38;1.30;;;;;;;;;;5114199;28;20024;-40
2022/11/26 06:21:33;;;;;;;4.60;1.70;;;;;;;;;;5111655;28;20027;-39
2022/11/26 06:23:59;;;;;;;3.38;1.70;;;;;;;;;;5114232;28;20546;-39
2022/11/26 06:26:25;;;;;;;3.88;1.60;;;;;;;;;;5114646;28;20020;-39
2022/11/26 06:28:51;;;;;;;3.30;1.73;;;;;;;;;;5114633;28;20485;-39
2022/11/26 06:31:17;;;;;;;4.65;1.65;;;;;;;;;;5114463;28;20032;-40
2022/11/26 06:33:43;;;;;;;6.07;1.60;;;;;;;;;;5114479;28;20027;-40
2022/11/26 06:36:10;;;;;;;2.97;1.20;;;;;;;;;;5109530;28;20081;-39
2022/11/26 06:38:35;;;;;;;3.97;1.60;;;;;;;;;;5098118;28;20023;-40
2022/11/26 06:41:03;;;;;;;2.92;1.48;;;;;;;;;;5114783;28;20030;-39
2022/11/26 06:43:29;;;;;;;2.42;1.42;;;;;;;;;;5114373;28;20429;-40
2022/11/26 06:46:00;;;;;;;6.90;1.80;;;;;;;;;;5112914;28;20019;-40
2022/11/26 06:48:26;;;;;;;4.05;1.40;;;;;;;;;;5111092;28;20023;-40
2022/11/26 06:50:52;;;;;;;2.97;1.67;;;;;;;;;;5108301;28;20070;-40
2022/11/26 06:53:18;;;;;;;3.78;1.70;;;;;;;;;;5104840;28;20062;-40
2022/11/26 06:55:45;;;;;;;5.78;1.83;;;;;;;;;;5115526;27;20034;-40
2022/11/26 06:58:11;;;;;;;3.90;1.77;;;;;;;;;;5134817;27;20027;-40
2022/11/26 07:00:37;;;;;;;4.25;1.55;;;;;;;;;;5122119;27;20106;-40
2022/11/26 07:03:03;;;;;;;3.60;1.52;;;;;;;;;;5111970;28;20032;-40
2022/11/26 07:05:29;;;;;;;3.50;1.90;;;;;;;;;;5113862;28;20439;-40
2022/11/26 07:07:55;;;;;;;4.32;1.80;;;;;;;;;;5112145;28;20064;-40
2022/11/26 07:10:21;;;;;;;3.75;1.70;;;;;;;;;;5109201;27;20023;-40
2022/11/26 07:12:47;;;;;;;3.28;1.63;;;;;;;;;;5099605;27;20047;-40
2022/11/26 07:15:13;;;;;;;3.38;1.58;;;;;;;;;;5095436;28;20032;-40
2022/11/26 07:17:39;;;;;;;4.15;1.75;;;;;;;;;;5094311;28;20070;-40
2022/11/26 07:20:05;;;;;;;5.10;1.75;;;;;;;;;;5094481;28;20028;-40
2022/11/26 07:22:31;;;;;;;5.95;1.90;;;;;;;;;;5101910;28;20023;-40
2022/11/26 07:24:57;;;;;;;3.53;1.75;;;;;;;;;;5113114;28;20137;-40
2022/11/26 07:27:23;;;;;;;4.22;1.80;;;;;;;;;;5112791;28;20367;-40
2022/11/26 07:29:50;;;;;;;4.78;2.05;;;;;;;;;;5113224;28;20031;-40
2022/11/26 07:32:16;;;;;;;5.20;1.90;;;;;;;;;;5104872;28;20027;-40
2022/11/26 07:34:42;;;;;;;5.25;1.73;;;;;;;;;;5111567;28;20032;-39
2022/11/26 07:37:09;;;;;;;3.58;1.35;;;;;;;;;;5107344;28;20035;-40
2022/11/26 07:39:35;;;;;;;5.35;2.17;;;;;;;;;;5113762;28;20027;-40
2022/11/26 07:42:01;;;;;;;3.90;2.00;;;;;;;;;;5112103;28;20028;-39
2022/11/26 07:44:27;;;;;;;3.67;2.08;;;;;;;;;;5113148;28;20109;-40
2022/11/26 07:46:53;;;;;;;5.15;2.03;;;;;;;;;;5100466;28;20070;-39
2022/11/26 07:49:19;;;;;;;3.58;2.00;;;;;;;;;;5113105;28;20502;-40
2022/11/26 07:51:45;;;;;;;4.53;1.67;;;;;;;;;;5109560;27;20077;-40
2022/11/26 07:54:11;;;;;;;5.07;1.90;;;;;;;;;;5097987;28;20407;-40
2022/11/26 07:56:37;;;;;;;3.28;1.70;;;;;;;;;;5113160;28;20023;-40
2022/11/26 07:59:03;;;;;;;3.42;1.52;;;;;;;;;;5112248;28;20031;-39
2022/11/26 08:01:29;;;;;;;2.15;1.23;;;;;;;;;;5101949;28;20032;-40
2022/11/26 08:03:55;;;;;;;1.98;1.13;;;;;;;;;;5093474;28;20128;-40
2022/11/26 08:06:23;;;;;;;2.03;1.20;;;;;;;;;;5112087;28;20451;-39
2022/11/26 08:08:49;;;;;;;1.58;1.10;;;;;;;;;;5111893;28;20038;-40
2022/11/26 08:11:26;;;;;;;2.20;1.25;;;;;;;;;;5099918;28;20121;-40
2022/11/26 08:13:56;;;;;;;2.90;1.48;;;;;;;;;;5098950;28;20028;-40
2022/11/26 08:16:22;;;;;;;2.58;1.50;;;;;;;;;;5104652;28;20032;-40
2022/11/26 08:18:52;;;;;;;3.33;1.70;;;;;;;;;;5098103;28;20023;-39
2022/11/26 08:21:18;;;;;;;3.97;1.90;;;;;;;;;;5096941;28;20036;-39
2022/11/26 08:23:44;;;;;;;2.83;1.52;;;;;;;;;;5107538;28;20028;-39
2022/11/26 08:26:12;;;;;;;1.98;1.55;;;;;;;;;;5112121;28;20063;-40
2022/11/26 08:28:38;;;;;;;2.67;1.50;;;;;;;;;;5111068;28;20031;-39
2022/11/26 08:31:05;;;;;;;3.28;1.80;;;;;;;;;;5112011;28;20024;-40
2022/11/26 08:33:32;;;;;;;2.95;1.45;;;;;;;;;;5112309;28;20027;-40
2022/11/26 08:35:58;;;;;;;3.70;1.80;;;;;;;;;;5110581;28;20379;-40
2022/11/26 08:38:24;;;;;;;2.00;1.58;;;;;;;;;;5112189;28;20019;-39
2022/11/26 08:40:50;;;;;;;3.92;1.70;;;;;;;;;;5111897;28;20023;-40
2022/11/26 08:43:16;;;;;;;2.90;1.70;;;;;;;;;;5108678;28;20023;-40
2022/11/26 08:45:42;;;;;;;2.55;1.65;;;;;;;;;;5112010;28;20060;-40
2022/11/26 08:48:08;;;;;;;2.63;1.60;;;;;;;;;;5111284;28;20028;-40
2022/11/26 08:50:34;;;;;;;2.75;1.80;;;;;;;;;;5111648;28;20028;-40
2022/11/26 08:53:00;;;;;;;3.13;1.80;;;;;;;;;;5111899;28;20376;-40
2022/11/26 08:55:26;;;;;;;3.88;1.95;;;;;;;;;;5091678;28;20115;-39
2022/11/26 08:57:52;;;;;;;2.60;1.80;;;;;;;;;;5091466;28;20472;-40
2022/11/26 09:00:18;;;;;;;3.05;1.83;;;;;;;;;;5091583;28;20024;-39
2022/11/26 09:02:44;;;;;;;2.85;1.70;;;;;;;;;;5125905;27;20026;-40
2022/11/26 09:05:10;;;;;;;2.47;1.80;;;;;;;;;;5132796;27;20035;-40
2022/11/26 09:07:36;;;;;;;3.33;1.95;;;;;;;;;;5132294;27;20028;-39
2022/11/26 09:10:02;;;;;;;4.03;1.95;;;;;;;;;;5108710;27;20028;-40
2022/11/26 09:12:28;;;;;;;3.90;2.08;;;;;;;;;;5089138;28;20020;-39
2022/11/26 09:14:54;;;;;;;3.53;1.60;;;;;;;;;;5111528;28;20126;-40
2022/11/26 09:17:20;;;;;;;3.28;1.77;;;;;;;;;;5111642;28;20020;-40
2022/11/26 09:19:46;;;;;;;4.22;2.28;;;;;;;;;;5111488;28;20088;-40
2022/11/26 09:22:12;;;;;;;3.10;2.00;;;;;;;;;;5111493;28;20494;-40
2022/11/26 09:24:38;;;;;;;3.05;1.88;;;;;;;;;;5111281;28;20069;-40
2022/11/26 09:27:04;;;;;;;3.95;2.08;;;;;;;;;;5108106;28;20012;-40
2022/11/26 09:29:30;;;;;;;4.32;2.17;;;;;;;;;;5088467;28;21506;-40
2022/11/26 09:31:56;;;;;;;3.85;2.00;;;;;;;;;;5090138;28;20020;-39
2022/11/26 09:34:22;;;;;;;5.25;1.98;;;;;;;;;;5107860;28;20066;-40
2022/11/26 09:36:48;;;;;;;4.03;2.00;;;;;;;;;;5108738;28;20055;-40
2022/11/26 09:39:14;;;;;;;2.95;1.77;;;;;;;;;;5099856;28;20024;-40
2022/11/26 09:41:43;;;;;;;3.05;2.03;;;;;;;;;;5112720;28;20073;-40
2022/11/26 09:44:27;;;;;;;3.22;2.17;;;;;;;;;;5115534;28;20035;-40
2022/11/26 09:47:10;;;;;;;4.38;1.85;;;;;;;;;;5115649;28;20020;-39
2022/11/26 09:49:40;;;;;;;3.25;1.88;;;;;;;;;;5115604;28;20027;-40
2022/11/26 09:52:08;;;;;;;2.85;1.70;;;;;;;;;;5115237;28;20035;-40
2022/11/26 09:54:34;;;;;;;3.70;2.03;;;;;;;;;;5115267;28;20051;-40
2022/11/26 09:57:17;;;;;;;2.10;1.45;;;;;;;;;;5114986;28;20056;-40
2022/11/26 09:59:45;;;;;;;2.72;1.45;;;;;;;;;;5106418;28;20024;-40
2022/11/26 10:02:12;;;;;;;4.28;2.05;;;;;;;;;;5107274;28;20142;-40
2022/11/26 10:04:39;;;;;;;3.80;1.70;;;;;;;;;;5115218;28;20074;-40
2022/11/26 10:07:25;;;;;;;3.97;1.70;;;;;;;;;;5115016;28;20137;-40
2022/11/26 10:09:56;;;;;;;5.35;2.13;;;;;;;;;;5114819;28;20494;-39
2022/11/26 10:12:22;;;;;;;3.30;1.73;;;;;;;;;;5111408;28;20032;-40
2022/11/26 10:15:06;;;;;;;2.53;1.65;;;;;;;;;;5094687;28;20028;-40
2022/11/26 10:17:55;;;;;;;2.33;1.70;;;;;;;;;;5094458;28;20019;-40
2022/11/26 10:20:21;;;;;;;3.03;1.38;;;;;;;;;;5094189;28;20032;-40
2022/11/26 10:22:53;;;;;;;3.58;1.60;;;;;;;;;;5094649;28;20020;-40
2022/11/26 10:25:20;;;;;;;3.72;1.55;;;;;;;;;;5094519;28;20107;-40
2022/11/26 10:27:48;;;;;;;1.95;1.23;;;;;;;;;;5094637;28;20058;-40
2022/11/26 10:30:21;;;;;;;3.35;1.73;;;;;;;;;;5094342;28;20502;-39
2022/11/26 10:32:48;;;;;;;2.17;1.23;;;;;;;;;;5094307;28;20028;-40
2022/11/26 10:35:16;;;;;;;1.83;1.27;;;;;;;;;;5094412;28;20379;-40
2022/11/26 10:37:42;;;;;;;3.65;1.60;;;;;;;;;;5094149;28;20027;-40
2022/11/26 10:40:27;;;;;;;2.38;1.30;;;;;;;;;;5094095;28;20035;-40
2022/11/26 10:43:02;;;;;;;1.65;1.25;;;;;;;;;;5094282;28;20020;-40
2022/11/26 10:45:35;;;;;;;2.42;1.20;;;;;;;;;;5093763;28;20326;-40
2022/11/26 10:48:16;;;;;;;2.80;1.55;;;;;;;;;;5080323;28;20043;-40
2022/11/26 10:50:43;;;;;;;2.58;1.40;;;;;;;;;;5088811;28;20024;-40
2022/11/26 10:53:22;;;;;;;1.92;1.20;;;;;;;;;;5083236;28;20027;-40
2022/11/26 10:55:48;;;;;;;2.92;1.40;;;;;;;;;;5092598;28;20043;-40
2022/11/26 10:58:17;;;;;;;2.38;1.40;;;;;;;;;;5080532;28;20047;-40
2022/11/26 11:00:49;;;;;;;3.83;1.73;;;;;;;;;;5073078;28;20438;-40
2022/11/26 11:03:26;;;;;;;2.70;1.50;;;;;;;;;;5091941;28;20133;-40
2022/11/26 11:06:08;;;;;;;2.95;1.50;;;;;;;;;;5076816;28;20035;-40
2022/11/26 11:08:35;;;;;;;3.63;1.48;;;;;;;;;;5073436;28;20078;-40
2022/11/26 11:11:02;;;;;;;2.72;1.38;;;;;;;;;;5073439;28;20025;-40
2022/11/26 11:13:54;;;;;;;2.30;1.30;;;;;;;;;;5085760;28;20036;-40
2022/11/26 11:16:26;;;;;;;2.50;1.40;;;;;;;;;;5088533;28;20568;-40
2022/11/26 11:19:02;;;;;;;3.05;1.55;;;;;;;;;;5092817;28;20093;-40
2022/11/26 11:21:33;;;;;;;2.00;1.10;;;;;;;;;;5092625;28;20074;-40
2022/11/26 11:24:06;;;;;;;2.47;1.30;;;;;;;;;;5092641;28;20035;-40
2022/11/26 11:26:38;;;;;;;3.08;1.65;;;;;;;;;;5092618;28;20483;-40
2022/11/26 11:29:04;;;;;;;1.33;1.13;;;;;;;;;;5092722;28;20063;-40
2022/11/26 11:31:43;;;;;;;3.55;1.70;;;;;;;;;;5092477;28;20052;-40
2022/11/26 11:34:18;;;;;;;2.83;1.50;;;;;;;;;;5073954;28;20074;-40
2022/11/26 11:36:57;;;;;;;3.08;1.52;;;;;;;;;;5092320;28;20031;-40
2022/11/26 11:39:30;;;;;;;2.63;1.55;;;;;;;;;;5093876;28;20024;-40
2022/11/26 11:41:57;;;;;;;1.50;1.30;;;;;;;;;;5096256;28;20023;-40
2022/11/26 11:44:26;;;;;;;3.33;1.35;;;;;;;;;;5104197;28;20031;-40
2022/11/26 11:47:07;;;;;;;1.73;1.30;;;;;;;;;;5110883;28;20115;-40
2022/11/26 11:49:36;;;;;;;2.75;1.17;;;;;;;;;;5101947;28;20024;-40
2022/11/26 11:52:02;;;;;;;3.00;1.23;;;;;;;;;;5097913;28;20047;-40
2022/11/26 11:54:53;;;;;;;1.83;1.33;;;;;;;;;;5108431;28;20116;-40
2022/11/26 11:57:57;;;;;;;2.30;1.27;;;;;;;;;;5086943;28;20522;-40
2022/11/26 12:00:29;;;;;;;1.95;1.30;;;;;;;;;;5024503;28;20037;-40
2022/11/26 12:03:08;;;;;;;2.13;1.17;;;;;;;;;;5017869;28;20034;-40
2022/11/26 12:05:42;;;;;;;2.15;1.25;;;;;;;;;;5076704;28;20514;-40
2022/11/26 12:08:08;;;;;;;2.92;1.38;;;;;;;;;;5103408;28;20027;-40
2022/11/26 12:10:49;;;;;;;3.63;1.52;;;;;;;;;;5103156;28;20133;-40
2022/11/26 12:13:16;;;;;;;2.10;1.58;;;;;;;;;;5099200;28;20176;-40
2022/11/26 12:15:42;;;;;;;1.45;1.00;;;;;;;;;;5093314;28;20028;-40
2022/11/26 12:18:17;;;;;;;1.52;1.13;;;;;;;;;;5095514;28;20077;-40
2022/11/26 12:20:48;;;;;;;2.83;1.50;;;;;;;;;;5111290;28;20566;-40
2022/11/26 12:23:14;;;;;;;4.10;1.90;;;;;;;;;;5110920;28;20016;-40
2022/11/26 12:25:41;;;;;;;2.05;1.10;;;;;;;;;;5104626;28;20398;-40
2022/11/26 12:28:19;;;;;;;5.43;1.67;;;;;;;;;;5110461;28;20020;-40
2022/11/26 12:30:52;;;;;;;2.70;1.42;;;;;;;;;;5102915;28;20031;-40
2022/11/26 12:33:42;;;;;;;3.38;1.50;;;;;;;;;;5106936;28;20059;-41
2022/11/26 12:36:28;;;;;;;1.70;1.20;;;;;;;;;;5100735;27;20111;-53
2022/11/26 12:38:56;;;;;;;2.75;1.38;;;;;;;;;;5090075;28;20502;-51
2022/11/26 12:41:40;;;;;;;4.15;1.75;;;;;;;;;;5090308;27;20072;-51
2022/11/26 12:44:13;;;;;;;3.45;1.35;;;;;;;;;;5080068;28;20027;-54
2022/11/26 12:46:44;;;;;;;3.00;1.48;;;;;;;;;;5104905;28;20510;-52
2022/11/26 12:49:42;;;;;;;2.80;1.63;;;;;;;;;;5098271;28;20032;-49
2022/11/26 12:52:11;;;;;;;2.05;1.27;;;;;;;;;;5036326;28;20127;-49
2022/11/26 12:54:48;;;;;;;2.30;1.50;;;;;;;;;;5095435;28;20034;-52
2022/11/26 12:57:24;;;;;;;2.60;1.40;;;;;;;;;;5076486;28;20028;-53
2022/11/26 12:59:56;;;;;;;1.90;1.17;;;;;;;;;;5096566;28;20033;-51
2022/11/26 13:02:24;;;;;;;3.58;1.60;;;;;;;;;;5102762;28;20028;-51
2022/11/26 13:04:52;;;;;;;2.03;1.48;;;;;;;;;;5093103;28;20079;-54
2022/11/26 13:07:17;;;;;;;2.47;1.65;;;;;;;;;;5091977;28;20561;-53
2022/11/26 13:09:46;;;;;;;4.00;1.70;;;;;;;;;;5092574;28;20035;-53
2022/11/26 13:12:17;;;;;;;3.08;1.40;;;;;;;;;;5092116;28;20039;-52
2022/11/26 13:14:46;;;;;;;2.63;1.40;;;;;;;;;;5090737;28;20448;-53
2022/11/26 13:17:13;;;;;;;3.40;1.73;;;;;;;;;;5095811;28;20035;-53
2022/11/26 13:19:48;;;;;;;2.75;1.40;;;;;;;;;;5098531;28;20102;-52
2022/11/26 13:22:17;;;;;;;2.92;1.45;;;;;;;;;;5098820;28;20027;-52
2022/11/26 13:25:02;;;;;;;1.50;1.40;;;;;;;;;;5095362;28;20111;-51
2022/11/26 13:27:48;;;;;;;2.08;1.10;;;;;;;;;;5094302;28;20032;-53
2022/11/26 13:30:14;;;;;;;2.08;1.08;;;;;;;;;;5101113;28;20078;-51
2022/11/26 13:32:42;;;;;;;1.98;1.50;;;;;;;;;;5108606;28;20035;-53
2022/11/26 13:35:14;;;;;;;1.80;1.30;;;;;;;;;;5098020;28;20550;-50
2022/11/26 13:37:56;;;;;;;1.80;1.35;;;;;;;;;;5091924;28;20077;-53
2022/11/26 13:40:22;;;;;;;2.60;1.30;;;;;;;;;;5097413;28;20028;-51
2022/11/26 13:42:54;;;;;;;3.40;1.35;;;;;;;;;;5102936;28;20094;-50
2022/11/26 13:45:30;;;;;;;2.47;1.60;;;;;;;;;;5107344;28;20039;-50
2022/11/26 13:48:03;;;;;;;1.67;1.10;;;;;;;;;;5090742;28;20043;-50
2022/11/26 13:50:32;;;;;;;2.90;1.80;;;;;;;;;;5079489;28;20024;-53
2022/11/26 13:53:06;;;;;;;2.40;1.30;;;;;;;;;;5072950;28;20504;-50
2022/11/26 13:55:35;;;;;;;2.00;1.20;;;;;;;;;;5102201;28;20378;-51
2022/11/26 13:58:05;;;;;;;1.77;1.35;;;;;;;;;;5097726;28;20918;-53
2022/11/26 14:00:32;;;;;;;2.65;1.63;;;;;;;;;;5094674;28;20015;-52
2022/11/26 14:02:59;;;;;;;2.10;1.45;;;;;;;;;;5104869;28;20031;-53
2022/11/26 14:05:57;;;;;;;2.55;1.40;;;;;;;;;;5104650;28;20119;-51
2022/11/26 14:08:53;;;;;;;3.70;1.70;;;;;;;;;;5086537;28;20036;-50
2022/11/26 14:11:38;;;;;;;2.00;1.27;;;;;;;;;;5073139;28;20040;-54
2022/11/26 14:14:22;;;;;;;2.75;1.30;;;;;;;;;;5097501;28;20043;-54
2022/11/26 14:17:00;;;;;;;2.45;1.33;;;;;;;;;;5093161;28;20032;-53
2022/11/26 14:19:57;;;;;;;1.35;1.15;;;;;;;;;;5097534;28;20401;-54
2022/11/26 14:22:36;;;;;;;2.28;1.73;;;;;;;;;;5106824;28;20542;-51
2022/11/26 14:25:06;;;;;;;3.13;1.50;;;;;;;;;;5100582;28;20036;-52
2022/11/26 14:27:34;;;;;;;4.15;1.42;;;;;;;;;;5072162;28;20024;-54
2022/11/26 14:30:05;;;;;;;3.78;1.92;;;;;;;;;;5096508;28;20028;-54
2022/11/26 14:32:41;;;;;;;2.92;1.38;;;;;;;;;;5101430;28;20035;-50
2022/11/26 14:35:17;;;;;;;3.13;1.60;;;;;;;;;;5092205;28;20049;-51
2022/11/26 14:37:50;;;;;;;2.75;1.55;;;;;;;;;;5099367;27;20093;-53
2022/11/26 14:40:45;;;;;;;3.55;1.65;;;;;;;;;;5100100;28;20385;-51
2022/11/26 14:43:15;;;;;;;2.17;1.30;;;;;;;;;;5088776;28;20051;-54
2022/11/26 14:45:42;;;;;;;3.58;1.58;;;;;;;;;;5105490;28;20089;-54
2022/11/26 14:48:16;;;;;;;1.95;1.42;;;;;;;;;;5103238;28;20031;-53
2022/11/26 14:50:42;;;;;;;2.05;1.33;;;;;;;;;;5084458;28;20020;-50
2022/11/26 14:53:10;;;;;;;2.65;1.33;;;;;;;;;;5103134;28;20039;-51
2022/11/26 14:55:36;;;;;;;2.15;1.40;;;;;;;;;;5109191;28;20067;-52
2022/11/26 14:58:07;;;;;;;2.30;1.20;;;;;;;;;;5081410;28;20063;-53
2022/11/26 15:00:34;;;;;;;1.17;1.00;;;;;;;;;;5104478;28;20090;-52
2022/11/26 15:03:02;;;;;;;1.95;1.10;;;;;;;;;;5098871;28;20024;-54
2022/11/26 15:05:32;;;;;;;1.90;1.13;;;;;;;;;;5110438;28;20035;-53
2022/11/26 15:08:19;;;;;;;2.15;1.13;;;;;;;;;;5112654;27;20110;-51
2022/11/26 15:10:51;;;;;;;1.77;1.27;;;;;;;;;;5105125;28;20062;-53
2022/11/26 15:13:36;;;;;;;2.03;1.25;;;;;;;;;;5078910;28;20036;-50
2022/11/26 15:16:03;;;;;;;1.60;1.20;;;;;;;;;;5099773;28;20088;-52
2022/11/26 15:18:34;;;;;;;2.55;1.17;;;;;;;;;;5100534;28;20028;-53
2022/11/26 15:21:01;;;;;;;1.77;1.35;;;;;;;;;;5101587;28;20519;-51
2022/11/26 15:23:30;;;;;;;2.15;1.30;;;;;;;;;;5083922;28;20024;-53
2022/11/26 15:25:57;;;;;;;2.00;1.38;;;;;;;;;;5097100;28;20028;-53
2022/11/26 15:28:23;;;;;;;3.28;1.40;;;;;;;;;;5097146;28;20019;-51
2022/11/26 15:30:53;;;;;;;2.33;1.40;;;;;;;;;;5096389;28;20035;-52
2022/11/26 15:33:20;;;;;;;1.50;1.20;;;;;;;;;;5089257;28;20028;-53
2022/11/26 15:35:46;;;;;;;2.33;1.67;;;;;;;;;;5100824;28;20027;-52
2022/11/26 15:38:16;;;;;;;3.17;1.70;;;;;;;;;;5097594;28;20491;-53
2022/11/26 15:40:48;;;;;;;2.78;1.45;;;;;;;;;;5092354;28;20024;-53
2022/11/26 15:43:32;;;;;;;2.70;1.80;;;;;;;;;;5108537;28;20590;-53
2022/11/26 15:46:11;;;;;;;4.55;2.63;;;;;;;;;;5106979;28;20045;-53
2022/11/26 15:48:43;;;;;;;14.65;8.18;;;;;;;;;;5096890;28;20035;-52
2022/11/26 15:51:31;;;;;;;21.77;12.00;;;;;;;;;;5095606;28;20421;-52
2022/11/26 15:53:57;;;;;;;21.00;12.25;;;;;;;;;;5090851;28;20016;-53
2022/11/26 15:56:25;;;;;;;20.92;12.75;;;;;;;;;;5099453;28;20570;-54
2022/11/26 15:58:53;;;;;;;16.27;9.95;;;;;;;;;;5094472;28;20107;-54
2022/11/26 16:01:22;;;;;;;16.05;8.57;;;;;;;;;;5092256;28;20028;-54
2022/11/26 16:03:52;;;;;;;24.05;10.48;;;;;;;;;;5106120;28;20042;-54
2022/11/26 16:06:32;;;;;;;25.30;9.38;;;;;;;;;;5081705;28;20031;-52
2022/11/26 16:09:18;;;;;;;18.40;7.57;;;;;;;;;;5097534;28;20403;-51
2022/11/26 16:11:56;;;;;;;15.32;7.18;;;;;;;;;;5088997;28;20020;-54
2022/11/26 16:14:35;;;;;;;11.45;5.30;;;;;;;;;;5094205;28;20028;-55
2022/11/26 16:17:03;;;;;;;9.38;4.72;;;;;;;;;;5104959;28;20080;-52
2022/11/26 16:19:29;;;;;;;7.70;3.58;;;;;;;;;;5103612;28;20024;-53
2022/11/26 16:21:56;;;;;;;7.13;3.70;;;;;;;;;;5104417;28;20095;-53
2022/11/26 16:24:30;;;;;;;6.53;2.95;;;;;;;;;;5093362;28;20032;-52
2022/11/26 16:26:57;;;;;;;3.65;2.40;;;;;;;;;;5100165;28;20032;-56
2022/11/26 16:29:24;;;;;;;5.45;2.20;;;;;;;;;;5076026;28;20395;-54
2022/11/26 16:31:50;;;;;;;3.25;1.90;;;;;;;;;;5091113;28;20100;-53
2022/11/26 16:34:16;;;;;;;4.53;1.90;;;;;;;;;;5090032;28;20035;-52
2022/11/26 16:36:42;;;;;;;3.45;2.03;;;;;;;;;;5095457;28;20491;-53
2022/11/26 16:39:13;;;;;;;2.00;1.48;;;;;;;;;;5092622;28;20048;-53
2022/11/26 16:41:39;;;;;;;2.33;1.63;;;;;;;;;;5094826;28;20077;-51
2022/11/26 16:44:05;;;;;;;1.52;1.33;;;;;;;;;;5107956;28;20062;-51
2022/11/26 16:46:34;;;;;;;2.72;1.60;;;;;;;;;;5106198;28;20577;-52
2022/11/26 16:49:00;;;;;;;1.92;1.33;;;;;;;;;;5099573;27;20457;-49
2022/11/26 16:51:26;;;;;;;2.08;1.45;;;;;;;;;;5126974;27;20023;-52
2022/11/26 16:53:52;;;;;;;1.65;1.35;;;;;;;;;;5093840;28;20089;-51
2022/11/26 16:56:21;;;;;;;2.15;1.40;;;;;;;;;;5093018;28;20031;-52
2022/11/26 16:58:47;;;;;;;2.70;1.60;;;;;;;;;;5101559;28;20020;-53
2022/11/26 17:01:13;;;;;;;1.70;1.48;;;;;;;;;;5096549;28;20028;-51
2022/11/26 17:03:40;;;;;;;3.63;1.52;;;;;;;;;;5107725;28;20394;-54
2022/11/26 17:06:26;;;;;;;1.48;1.38;;;;;;;;;;5090025;28;20024;-54
2022/11/26 17:08:54;;;;;;;3.65;2.03;;;;;;;;;;5088115;28;20059;-54
2022/11/26 17:11:20;;;;;;;2.55;1.70;;;;;;;;;;5092186;28;20036;-54
2022/11/26 17:13:46;;;;;;;3.17;1.98;;;;;;;;;;5101180;28;20415;-54
2022/11/26 17:16:14;;;;;;;2.00;1.45;;;;;;;;;;5062010;28;20016;-54
2022/11/26 17:18:40;;;;;;;2.65;1.70;;;;;;;;;;5076489;28;20440;-55
2022/11/26 17:21:06;;;;;;;2.65;1.88;;;;;;;;;;5078650;28;20028;-54
2022/11/26 17:23:32;;;;;;;2.30;1.52;;;;;;;;;;5069779;28;20543;-51
2022/11/26 17:25:59;;;;;;;2.05;1.73;;;;;;;;;;5080681;28;20043;-52
2022/11/26 17:28:26;;;;;;;2.35;1.73;;;;;;;;;;5084771;28;20032;-51
2022/11/26 17:30:52;;;;;;;3.40;2.35;;;;;;;;;;5072345;28;20067;-54
2022/11/26 17:33:18;;;;;;;2.83;2.00;;;;;;;;;;5081894;28;20158;-50
2022/11/26 17:35:45;;;;;;;3.85;2.13;;;;;;;;;;5081292;28;20028;-51
2022/11/26 17:38:18;;;;;;;4.10;2.47;;;;;;;;;;5088772;28;20108;-52
2022/11/26 17:40:45;;;;;;;4.90;3.50;;;;;;;;;;5057493;28;20111;-53
2022/11/26 17:43:11;;;;;;;3.63;2.72;;;;;;;;;;5061753;28;20124;-53
2022/11/26 17:45:37;;;;;;;4.10;2.47;;;;;;;;;;5079907;28;20606;-51
2022/11/26 17:48:04;;;;;;;3.83;2.67;;;;;;;;;;5083646;28;20027;-53
2022/11/26 17:50:30;;;;;;;5.68;3.67;;;;;;;;;;5051300;28;20033;-52
2022/11/26 17:52:56;;;;;;;5.70;3.80;;;;;;;;;;5083863;28;20020;-53
2022/11/26 17:55:23;;;;;;;6.85;4.82;;;;;;;;;;5068344;28;20029;-54
2022/11/26 17:57:50;;;;;;;8.30;4.43;;;;;;;;;;5086950;28;20024;-54
2022/11/26 18:00:21;;;;;;;6.43;4.35;;;;;;;;;;5087885;28;20028;-53
2022/11/26 18:02:48;;;;;;;5.05;3.90;;;;;;;;;;5089933;28;20020;-54
2022/11/26 18:05:14;;;;;;;5.05;3.53;;;;;;;;;;5092253;28;20047;-51
2022/11/26 18:07:40;;;;;;;6.65;4.47;;;;;;;;;;5090242;28;20028;-53
2022/11/26 18:10:07;;;;;;;8.23;4.43;;;;;;;;;;5075513;28;20106;-53
2022/11/26 18:12:33;;;;;;;7.32;4.70;;;;;;;;;;5095109;28;20061;-52
2022/11/26 18:15:00;;;;;;;8.10;5.13;;;;;;;;;;5094168;28;20061;-53
2022/11/26 18:17:26;;;;;;;8.38;4.43;;;;;;;;;;5099438;28;20787;-50
2022/11/26 18:19:52;;;;;;;6.05;4.15;;;;;;;;;;5073777;28;20028;-54
2022/11/26 18:22:20;;;;;;;4.55;3.38;;;;;;;;;;5081792;28;20031;-53
2022/11/26 18:24:51;;;;;;;6.15;3.20;;;;;;;;;;5078246;28;20082;-53
2022/11/26 18:27:17;;;;;;;4.00;3.10;;;;;;;;;;5091521;28;20020;-52
2022/11/26 18:29:43;;;;;;;3.72;2.85;;;;;;;;;;5093652;28;20127;-51
2022/11/26 18:32:10;;;;;;;4.82;2.83;;;;;;;;;;5091857;28;20387;-50
2022/11/26 18:34:36;;;;;;;3.95;2.42;;;;;;;;;;5091488;28;20028;-54
2022/11/26 18:37:02;;;;;;;4.40;2.65;;;;;;;;;;5076379;28;20020;-53
2022/11/26 18:39:28;;;;;;;4.40;2.92;;;;;;;;;;5098922;28;20024;-54
2022/11/26 18:41:54;;;;;;;4.40;2.38;;;;;;;;;;5053107;28;20111;-54
2022/11/26 18:44:20;;;;;;;4.50;2.60;;;;;;;;;;5086408;28;20036;-54
2022/11/26 18:46:47;;;;;;;3.17;2.30;;;;;;;;;;5068069;28;20401;-53
2022/11/26 18:49:14;;;;;;;3.83;2.83;;;;;;;;;;5081437;28;20070;-55
2022/11/26 18:51:40;;;;;;;4.20;2.67;;;;;;;;;;5085664;28;20028;-53
2022/11/26 18:54:06;;;;;;;4.82;3.22;;;;;;;;;;5084076;28;20416;-51
2022/11/26 18:56:32;;;;;;;6.32;4.07;;;;;;;;;;5071728;28;20031;-54
2022/11/26 18:58:58;;;;;;;6.22;3.95;;;;;;;;;;5080431;28;20025;-51
2022/11/26 19:01:26;;;;;;;5.65;3.65;;;;;;;;;;5089995;28;20027;-54
2022/11/26 19:03:52;;;;;;;6.00;4.03;;;;;;;;;;5076531;28;20427;-55
2022/11/26 19:06:19;;;;;;;5.45;3.40;;;;;;;;;;5070283;28;20033;-52
2022/11/26 19:08:46;;;;;;;7.03;3.55;;;;;;;;;;5085713;28;20016;-54
2022/11/26 19:11:17;;;;;;;7.85;3.95;;;;;;;;;;5085933;28;20107;-52
2022/11/26 19:13:43;;;;;;;7.50;4.18;;;;;;;;;;5088483;28;20024;-52
2022/11/26 19:16:11;;;;;;;6.53;3.83;;;;;;;;;;5106444;28;20494;-54
2022/11/26 19:18:37;;;;;;;6.68;3.55;;;;;;;;;;5090713;28;20051;-53
2022/11/26 19:21:03;;;;;;;5.63;3.40;;;;;;;;;;5098758;28;20497;-54
2022/11/26 19:23:30;;;;;;;5.32;3.25;;;;;;;;;;5107494;28;20105;-53
2022/11/26 19:25:56;;;;;;;4.68;2.90;;;;;;;;;;5093491;28;20032;-53
2022/11/26 19:28:26;;;;;;;3.03;2.40;;;;;;;;;;5090339;28;20035;-52
2022/11/26 19:30:59;;;;;;;4.70;3.00;;;;;;;;;;5090540;28;20036;-54
2022/11/26 19:33:25;;;;;;;3.92;2.25;;;;;;;;;;5095418;28;20038;-54
2022/11/26 19:35:51;;;;;;;3.58;2.40;;;;;;;;;;5095301;28;20032;-53
2022/11/26 19:38:17;;;;;;;3.90;2.72;;;;;;;;;;5106552;28;20052;-53
2022/11/26 19:40:43;;;;;;;4.00;2.47;;;;;;;;;;5109292;28;20142;-54
2022/11/26 19:43:09;;;;;;;3.25;2.60;;;;;;;;;;5079553;28;20157;-54
2022/11/26 19:45:35;;;;;;;3.45;2.08;;;;;;;;;;5109858;28;20054;-53
2022/11/26 19:48:01;;;;;;;4.28;2.83;;;;;;;;;;5098329;28;20027;-54
2022/11/26 19:50:27;;;;;;;4.38;2.50;;;;;;;;;;5102246;28;20071;-54
2022/11/26 19:52:53;;;;;;;2.85;2.30;;;;;;;;;;5071969;28;20026;-52
2022/11/26 19:55:19;;;;;;;3.08;2.35;;;;;;;;;;5101130;28;20032;-54
2022/11/26 19:57:45;;;;;;;6.07;3.22;;;;;;;;;;5078020;28;20028;-54
2022/11/26 20:00:11;;;;;;;2.97;2.28;;;;;;;;;;5100912;28;20035;-54
2022/11/26 20:02:37;;;;;;;5.43;2.88;;;;;;;;;;5091179;28;20032;-53
2022/11/26 20:05:04;;;;;;;5.32;3.20;;;;;;;;;;5088622;28;20034;-53
2022/11/26 20:07:30;;;;;;;3.95;2.83;;;;;;;;;;5096347;28;20031;-52